Time;durP1;ratioP1;P1;durP2;ratioP2;P2;SDS_P1;SDS_P2;PMS_P1;PMS_P2;Temp;Humidity;BMP_temperature;BMP_pressure;BME280_temperature;BME280_humidity;BME280_pressure;Samples;Min_cycle;Max_cycle;Signal;HPM_P1;HPM_P2
2022/05/22 00:02:22;;;;;;;;;;;11.70;99.90;;;;;;5086797;28;19931;-82
2022/05/22 00:04:52;;;;;;;;;;;11.70;99.90;;;;;;5069373;28;19909;-80
2022/05/22 00:07:20;;;;;;;;;;;11.70;99.90;;;;;;5086412;28;19931;-81
2022/05/22 00:09:47;;;;;;;;;;;11.70;99.90;;;;;;5074335;28;19924;-79
2022/05/22 00:12:14;;;;;;;;;;;11.70;99.90;;;;;;5069453;28;19925;-79
2022/05/22 00:14:40;;;;;;;;;;;11.70;99.90;;;;;;5085596;28;20250;-81
2022/05/22 00:17:08;;;;;;;;;;;11.70;99.90;;;;;;5086174;28;19931;-80
2022/05/22 00:19:35;;;;;;;;;;;11.60;99.90;;;;;;5069953;28;19928;-79
2022/05/22 00:22:02;;;;;;;;;;;11.60;99.90;;;;;;5052775;28;19935;-81
2022/05/22 00:24:30;;;;;;;;;;;11.60;99.90;;;;;;5068411;28;20037;-81
2022/05/22 00:26:57;;;;;;;;;;;11.60;99.90;;;;;;5050586;28;19967;-79
2022/05/22 00:29:26;;;;;;;;;;;11.60;99.90;;;;;;5067427;28;20385;-81
2022/05/22 00:31:52;;;;;;;;;;;11.60;99.90;;;;;;5068852;28;19920;-78
2022/05/22 00:34:19;;;;;;;;;;;11.60;99.90;;;;;;5067815;28;20019;-77
2022/05/22 00:36:46;;;;;;;;;;;11.60;99.90;;;;;;5054174;28;20436;-77
2022/05/22 00:39:13;;;;;;;;;;;11.60;99.90;;;;;;5073902;28;19923;-77
2022/05/22 00:41:47;;;;;;;;;;;11.60;99.90;;;;;;5050690;28;20126;-77
2022/05/22 00:44:13;;;;;;;;;;;11.60;99.90;;;;;;5043046;28;19925;-78
2022/05/22 00:46:40;;;;;;;;;;;11.60;99.90;;;;;;5066332;28;19947;-81
2022/05/22 00:49:08;;;;;;;;;;;11.60;99.90;;;;;;5076326;28;19924;-82
2022/05/22 00:51:37;;;;;;;;;;;11.60;99.90;;;;;;5066904;28;19928;-79
2022/05/22 00:54:07;;;;;;;;;;;11.50;99.90;;;;;;5067003;28;19932;-79
2022/05/22 00:56:36;;;;;;;;;;;11.50;99.90;;;;;;5069907;28;19951;-78
2022/05/22 00:59:08;;;;;;;;;;;11.40;99.90;;;;;;5072305;28;19928;-77
2022/05/22 01:01:35;;;;;;;;;;;11.50;99.90;;;;;;5052324;28;20319;-77
2022/05/22 01:04:03;;;;;;;;;;;11.30;99.90;;;;;;5044920;28;20188;-77
2022/05/22 01:06:30;;;;;;;;;;;11.30;99.90;;;;;;5069635;28;19928;-77
2022/05/22 01:08:58;;;;;;;;;;;11.30;99.90;;;;;;5044500;28;19935;-77
2022/05/22 01:11:27;;;;;;;;;;;12.10;99.90;;;;;;5070562;28;19932;-79
2022/05/22 01:13:57;;;;;;;;;;;11.30;99.90;;;;;;5052228;28;20039;-76
2022/05/22 01:16:25;;;;;;;;;;;11.30;99.90;;;;;;5045102;28;19932;-78
2022/05/22 01:18:53;;;;;;;;;;;11.30;99.90;;;;;;5069206;28;20432;-78
2022/05/22 01:21:21;;;;;;;;;;;11.20;99.90;;;;;;5052886;28;20346;-78
2022/05/22 01:23:50;;;;;;;;;;;11.20;99.90;;;;;;5079499;28;20238;-78
2022/05/22 01:26:29;;;;;;;;;;;11.20;99.90;;;;;;5051616;28;20643;-78
2022/05/22 01:29:20;;;;;;;;;;;11.20;99.90;;;;;;5051451;28;20136;-76
2022/05/22 01:31:46;;;;;;;;;;;11.20;99.90;;;;;;5069464;28;19931;-79
2022/05/22 01:34:13;;;;;;;;;;;11.20;99.90;;;;;;5046299;28;19931;-78
2022/05/22 01:36:40;;;;;;;;;;;11.20;99.90;;;;;;5070256;28;20318;-78
2022/05/22 01:39:09;;;;;;;;;;;11.20;99.90;;;;;;5051871;28;20365;-77
2022/05/22 01:41:47;;;;;;;;;;;11.20;99.90;;;;;;5048859;28;20368;-78
2022/05/22 01:44:14;;;;;;;;;;;11.20;99.90;;;;;;5053391;28;19920;-77
2022/05/22 01:46:41;;;;;;;;;;;11.30;99.90;;;;;;5052642;28;19930;-78
2022/05/22 01:49:10;;;;;;;;;;;11.30;99.90;;;;;;5064345;28;19937;-78
2022/05/22 01:51:38;;;;;;;;;;;11.30;99.90;;;;;;5077226;28;20423;-78
2022/05/22 01:54:05;;;;;;;;;;;11.40;99.90;;;;;;5054978;28;20426;-78
2022/05/22 01:56:35;;;;;;;;;;;11.40;99.90;;;;;;5053322;28;20027;-78
2022/05/22 01:59:03;;;;;;;;;;;11.40;99.90;;;;;;5061259;28;19924;-78
2022/05/22 02:01:35;;;;;;;;;;;11.40;99.90;;;;;;5062288;28;19924;-78
2022/05/22 02:04:05;;;;;;;;;;;11.30;99.90;;;;;;5061095;28;20516;-78
2022/05/22 02:08:18;;;;;;;;;;;11.30;99.90;;;;;;5060680;28;19924;-78
2022/05/22 02:09:26;;;;;;;;;;;11.30;99.90;;;;;;5061962;28;20047;-79
2022/05/22 02:11:54;;;;;;;;;;;11.20;99.90;;;;;;5081344;28;19955;-78
2022/05/22 02:14:20;;;;;;;;;;;12.10;99.90;;;;;;5087504;28;19992;-77
2022/05/22 02:16:55;;;;;;;;;;;11.20;99.90;;;;;;5060962;28;20381;-77
2022/05/22 02:19:22;;;;;;;;;;;11.20;99.90;;;;;;5049973;28;19925;-77
2022/05/22 02:21:49;;;;;;;;;;;11.30;99.90;;;;;;5052554;28;19935;-77
2022/05/22 02:24:16;;;;;;;;;;;11.20;99.90;;;;;;5056309;28;19974;-77
2022/05/22 02:26:45;;;;;;;;;;;11.20;99.90;;;;;;5066766;28;20005;-77
2022/05/22 02:29:16;;;;;;;;;;;11.20;99.90;;;;;;5058291;28;19928;-77
2022/05/22 02:31:43;;;;;;;;;;;11.30;99.90;;;;;;5050125;28;19927;-77
2022/05/22 02:34:10;;;;;;;;;;;11.30;99.90;;;;;;5062722;28;20382;-76
2022/05/22 02:36:37;;;;;;;;;;;11.20;99.90;;;;;;5049679;28;19921;-77
2022/05/22 02:39:03;;;;;;;;;;;11.30;99.90;;;;;;5050685;28;19920;-78
2022/05/22 02:41:32;;;;;;;;;;;11.20;99.90;;;;;;5051461;28;19928;-77
2022/05/22 02:44:00;;;;;;;;;;;11.20;99.90;;;;;;5057241;28;19951;-77
2022/05/22 02:46:28;;;;;;;;;;;11.20;99.90;;;;;;5068775;28;19928;-77
2022/05/22 02:48:56;;;;;;;;;;;11.20;99.90;;;;;;5063020;28;19924;-77
2022/05/22 02:51:31;;;;;;;;;;;11.20;99.90;;;;;;5058576;28;19932;-77
2022/05/22 02:53:58;;;;;;;;;;;11.10;99.90;;;;;;5050923;28;20027;-77
2022/05/22 02:56:38;;;;;;;;;;;11.20;99.90;;;;;;5049131;28;20303;-77
2022/05/22 02:59:23;;;;;;;;;;;11.20;99.90;;;;;;5068239;28;20377;-77
2022/05/22 03:02:09;;;;;;;;;;;11.20;99.90;;;;;;5069454;28;19935;-77
2022/05/22 03:04:37;;;;;;;;;;;11.20;99.90;;;;;;5048589;28;20047;-78
2022/05/22 03:07:08;;;;;;;;;;;11.20;99.90;;;;;;5049900;28;20304;-77
2022/05/22 03:09:37;;;;;;;;;;;11.10;99.90;;;;;;5049957;28;19924;-77
2022/05/22 03:12:06;;;;;;;;;;;11.00;99.90;;;;;;5060972;28;20023;-77
2022/05/22 03:14:34;;;;;;;;;;;11.00;99.90;;;;;;5061862;28;20005;-78
2022/05/22 03:17:01;;;;;;;;;;;11.00;99.90;;;;;;5088304;28;19930;-77
2022/05/22 03:19:36;;;;;;;;;;;11.00;99.90;;;;;;5064138;28;19947;-77
2022/05/22 03:22:03;;;;;;;;;;;11.10;99.90;;;;;;5063618;28;19924;-77
2022/05/22 03:24:32;;;;;;;;;;;11.10;99.90;;;;;;5049068;28;19970;-77
2022/05/22 03:27:01;;;;;;;;;;;11.10;99.90;;;;;;5050487;28;19935;-77
2022/05/22 03:29:27;;;;;;;;;;;11.20;99.90;;;;;;5068005;28;19924;-77
2022/05/22 03:31:56;;;;;;;;;;;11.10;99.90;;;;;;5063282;28;19924;-76
2022/05/22 03:34:24;;;;;;;;;;;11.10;99.90;;;;;;5063377;28;19954;-77
2022/05/22 03:36:55;;;;;;;;;;;11.10;99.90;;;;;;5049440;28;19924;-77
2022/05/22 03:39:22;;;;;;;;;;;12.10;99.90;;;;;;5053425;28;19924;-78
2022/05/22 03:41:49;;;;;;;;;;;11.10;99.90;;;;;;5049608;28;20329;-79
2022/05/22 03:44:18;;;;;;;;;;;11.10;99.90;;;;;;5057356;28;19942;-79
2022/05/22 03:46:48;;;;;;;;;;;11.20;99.90;;;;;;5051850;28;19924;-78
2022/05/22 03:49:16;;;;;;;;;;;11.20;99.90;;;;;;5049227;28;20039;-79
2022/05/22 03:51:46;;;;;;;;;;;11.20;99.90;;;;;;5050005;28;19924;-81
2022/05/22 03:54:17;;;;;;;;;;;11.20;99.90;;;;;;5053080;28;19970;-79
2022/05/22 03:56:46;;;;;;;;;;;11.30;99.90;;;;;;5051918;28;19924;-79
2022/05/22 03:59:21;;;;;;;;;;;11.30;99.90;;;;;;5054361;28;19979;-81
2022/05/22 04:01:49;;;;;;;;;;;11.30;99.90;;;;;;5055304;28;19927;-78
2022/05/22 04:04:15;;;;;;;;;;;11.30;99.90;;;;;;5052345;28;19924;-81
2022/05/22 04:06:42;;;;;;;;;;;11.30;99.90;;;;;;5070996;28;19924;-79
2022/05/22 04:09:11;;;;;;;;;;;11.40;99.90;;;;;;5069816;28;19920;-80
2022/05/22 04:11:59;;;;;;;;;;;11.40;99.90;;;;;;5056523;28;19982;-80
2022/05/22 04:14:25;;;;;;;;;;;12.10;99.90;;;;;;5069530;28;20411;-80
2022/05/22 04:17:05;;;;;;;;;;;11.50;99.90;;;;;;5052626;28;19920;-80
2022/05/22 04:19:32;;;;;;;;;;;11.60;99.90;;;;;;5070774;28;19925;-79
2022/05/22 04:21:59;;;;;;;;;;;11.70;99.90;;;;;;5052059;28;19928;-79
2022/05/22 04:27:13;;;;;;;;;;;11.90;99.90;;;;;;5050346;28;19920;-82
2022/05/22 04:29:41;;;;;;;;;;;12.00;99.90;;;;;;5070692;28;19927;-80
2022/05/22 04:32:08;;;;;;;;;;;12.00;99.90;;;;;;5062202;28;19924;-79
2022/05/22 04:35:01;;;;;;;;;;;12.10;99.90;;;;;;5067494;28;19936;-79
2022/05/22 04:37:31;;;;;;;;;;;12.20;99.90;;;;;;5059427;28;20452;-79
2022/05/22 04:40:00;;;;;;;;;;;12.30;99.90;;;;;;5060663;28;19931;-80
2022/05/22 04:42:28;;;;;;;;;;;12.40;99.90;;;;;;5060088;28;19931;-80
2022/05/22 04:44:55;;;;;;;;;;;12.50;99.90;;;;;;5057551;28;19921;-80
2022/05/22 04:47:43;;;;;;;;;;;12.80;99.90;;;;;;5060944;28;19924;-80
2022/05/22 04:50:15;;;;;;;;;;;12.80;99.90;;;;;;5077856;28;19993;-79
2022/05/22 04:53:01;;;;;;;;;;;13.00;99.90;;;;;;5076444;28;20326;-80
2022/05/22 04:55:29;;;;;;;;;;;13.30;99.90;;;;;;5054279;28;19930;-81
2022/05/22 04:58:00;;;;;;;;;;;13.60;99.90;;;;;;5056374;28;19946;-80
2022/05/22 05:00:27;;;;;;;;;;;13.90;99.90;;;;;;5058175;28;19924;-79
2022/05/22 05:03:05;;;;;;;;;;;14.10;99.90;;;;;;5057480;28;19926;-79
2022/05/22 05:05:32;;;;;;;;;;;14.40;99.90;;;;;;5054204;28;19935;-79
2022/05/22 05:07:59;;;;;;;;;;;14.70;99.90;;;;;;5054796;28;19927;-80
2022/05/22 05:10:51;;;;;;;;;;;14.80;99.90;;;;;;5067292;28;19924;-82
2022/05/22 05:13:24;;;;;;;;;;;15.00;99.90;;;;;;5049014;28;19932;-79
2022/05/22 05:16:01;;;;;;;;;;;15.10;99.90;;;;;;5060834;28;19930;-80
2022/05/22 05:18:32;;;;;;;;;;;15.20;99.90;;;;;;5056434;28;19921;-81
2022/05/22 05:21:00;;;;;;;;;;;15.50;99.90;;;;;;5074168;28;19924;-80
2022/05/22 05:23:28;;;;;;;;;;;15.70;99.90;;;;;;5057020;28;19960;-80
2022/05/22 05:26:10;;;;;;;;;;;15.90;99.90;;;;;;5057868;28;19943;-81
2022/05/22 05:28:39;;;;;;;;;;;16.20;99.90;;;;;;5069899;28;19931;-82
2022/05/22 05:31:08;;;;;;;;;;;16.50;99.90;;;;;;5073224;28;19924;-83
2022/05/22 05:33:37;;;;;;;;;;;17.30;99.90;;;;;;5064334;28;19959;-82
2022/05/22 05:36:23;;;;;;;;;;;18.40;99.90;;;;;;5063592;28;19924;-79
2022/05/22 05:39:13;;;;;;;;;;;19.20;99.90;;;;;;5032025;28;19970;-79
2022/05/22 05:41:48;;;;;;;;;;;20.30;99.90;;;;;;5055482;28;19947;-79
2022/05/22 05:44:19;;;;;;;;;;;21.20;99.90;;;;;;5053016;28;20028;-79
2022/05/22 05:46:58;;;;;;;;;;;21.70;99.90;;;;;;5058542;28;19927;-80
2022/05/22 05:49:31;;;;;;;;;;;22.40;99.90;;;;;;5138944;23;19928;-82
2022/05/22 05:52:20;;;;;;;;;;;22.80;99.90;;;;;;5075829;28;19932;-82
2022/05/22 05:54:53;;;;;;;;;;;23.90;99.90;;;;;;5070804;28;19985;-82
2022/05/22 05:57:51;;;;;;;;;;;25.10;99.90;;;;;;5068548;28;20419;-83
2022/05/22 06:00:20;;;;;;;;;;;26.40;99.90;;;;;;5058719;28;20058;-82
2022/05/22 06:02:51;;;;;;;;;;;27.30;99.90;;;;;;5056693;28;20395;-82
2022/05/22 06:05:18;;;;;;;;;;;28.30;99.90;;;;;;5053061;28;19947;-83
2022/05/22 06:07:48;;;;;;;;;;;29.20;99.90;;;;;;5074368;28;19932;-83
2022/05/22 06:10:17;;;;;;;;;;;30.10;99.90;;;;;;5056581;28;19920;-84
2022/05/22 06:13:08;;;;;;;;;;;30.80;99.90;;;;;;5063777;28;19920;-84
2022/05/22 06:15:36;;;;;;;;;;;31.40;99.90;;;;;;5055590;28;19975;-83
2022/05/22 06:18:03;;;;;;;;;;;32.00;99.90;;;;;;5047446;28;19955;-83
2022/05/22 06:20:31;;;;;;;;;;;32.70;99.90;;;;;;5088271;28;19919;-82
2022/05/22 06:23:08;;;;;;;;;;;33.20;99.90;;;;;;5079234;23;19920;-72
2022/05/22 06:25:53;;;;;;;;;;;33.30;99.90;;;;;;5069666;28;19990;-72
2022/05/22 06:28:38;;;;;;;;;;;33.90;99.90;;;;;;5050313;28;19921;-72
2022/05/22 06:31:12;;;;;;;;;;;34.30;99.90;;;;;;5046579;28;19924;-72
2022/05/22 06:34:14;;;;;;;;;;;34.80;99.90;;;;;;5045713;28;19924;-72
2022/05/22 06:36:51;;;;;;;;;;;35.20;98.10;;;;;;5050424;28;20432;-73
2022/05/22 06:39:52;;;;;;;;;;;35.40;96.80;;;;;;5048283;28;20356;-72
2022/05/22 06:42:38;;;;;;;;;;;34.90;95.10;;;;;;5065397;28;19930;-72
2022/05/22 06:45:28;;;;;;;;;;;33.00;94.20;;;;;;5060233;28;19932;-72
2022/05/22 06:48:19;;;;;;;;;;;31.30;94.20;;;;;;5037940;28;20396;-72
2022/05/22 06:50:55;;;;;;;;;;;30.20;95.20;;;;;;5063813;28;20452;-73
2022/05/22 06:53:37;;;;;;;;;;;31.80;96.30;;;;;;5047671;28;20014;-73
2022/05/22 06:56:23;;;;;;;;;;;31.80;96.50;;;;;;5065994;28;19969;-73
2022/05/22 06:59:08;;;;;;;;;;;32.70;94.30;;;;;;5063541;28;19947;-74
2022/05/22 07:01:54;;;;;;;;;;;33.50;94.20;;;;;;5048776;28;20286;-73
2022/05/22 07:04:41;;;;;;;;;;;34.80;93.50;;;;;;5067167;28;20324;-74
2022/05/22 07:07:28;;;;;;;;;;;36.00;91.60;;;;;;5072009;28;19924;-74
2022/05/22 07:10:13;;;;;;;;;;;36.80;88.90;;;;;;5048402;28;19920;-74
2022/05/22 07:13:00;;;;;;;;;;;37.60;87.30;;;;;;5049929;28;19927;-74
2022/05/22 07:15:42;;;;;;;;;;;38.10;84.50;;;;;;5068316;28;19930;-74
2022/05/22 07:18:22;;;;;;;;;;;38.30;82.50;;;;;;5043778;28;19924;-72
2022/05/22 07:21:09;;;;;;;;;;;38.00;78.70;;;;;;5067957;28;19969;-73
2022/05/22 07:23:49;;;;;;;;;;;38.50;79.20;;;;;;5049585;28;20005;-72
2022/05/22 07:26:36;;;;;;;;;;;38.60;75.20;;;;;;5043393;28;19931;-73
2022/05/22 07:29:29;;;;;;;;;;;38.80;74.10;;;;;;5039255;28;19936;-72
2022/05/22 07:32:22;;;;;;;;;;;38.30;73.50;;;;;;5042467;28;20431;-72
2022/05/22 07:35:08;;;;;;;;;;;37.70;73.30;;;;;;5058075;28;20066;-72
2022/05/22 07:38:11;;;;;;;;;;;37.20;72.40;;;;;;5000591;28;19925;-72
2022/05/22 07:40:57;;;;;;;;;;;36.80;70.30;;;;;;5062650;28;20050;-72
2022/05/22 07:43:40;;;;;;;;;;;35.10;70.20;;;;;;5048692;28;20028;-72
2022/05/22 07:46:22;;;;;;;;;;;35.10;70.50;;;;;;5053465;28;19932;-73
2022/05/22 07:48:53;;;;;;;;;;;34.20;71.20;;;;;;5048020;28;20286;-73
2022/05/22 07:51:43;;;;;;;;;;;33.30;72.20;;;;;;5065106;28;20036;-74
2022/05/22 07:54:50;;;;;;;;;;;33.10;72.20;;;;;;5041379;28;19928;-75
2022/05/22 07:57:37;;;;;;;;;;;33.30;73.40;;;;;;5065819;28;19960;-74
2022/05/22 08:00:32;;;;;;;;;;;33.80;71.80;;;;;;5062367;28;19951;-74
2022/05/22 08:03:07;;;;;;;;;;;34.30;70.00;;;;;;5048002;28;20349;-74
2022/05/22 08:05:34;;;;;;;;;;;34.50;69.60;;;;;;5046157;28;19928;-75
2022/05/22 08:08:03;;;;;;;;;;;34.90;70.40;;;;;;5047716;28;20246;-74
2022/05/22 08:10:50;;;;;;;;;;;35.40;70.00;;;;;;5058891;28;20346;-75
2022/05/22 08:13:24;;;;;;;;;;;36.00;69.10;;;;;;5048470;28;19924;-75
2022/05/22 08:15:51;;;;;;;;;;;36.20;66.90;;;;;;5043989;28;20377;-75
2022/05/22 08:18:34;;;;;;;;;;;36.20;66.60;;;;;;5046108;28;19963;-73
2022/05/22 08:21:02;;;;;;;;;;;36.10;67.30;;;;;;5043364;28;19978;-73
2022/05/22 08:23:30;;;;;;;;;;;36.10;66.40;;;;;;5045621;28;20018;-74
2022/05/22 08:26:04;;;;;;;;;;;35.50;64.80;;;;;;5050400;28;19931;-75
2022/05/22 08:28:34;;;;;;;;;;;34.60;64.40;;;;;;5048687;28;19924;-74
2022/05/22 08:31:02;;;;;;;;;;;33.80;64.10;;;;;;5047729;28;19947;-74
2022/05/22 08:33:30;;;;;;;;;;;32.90;65.70;;;;;;5047761;28;20011;-74
2022/05/22 08:35:59;;;;;;;;;;;33.10;67.90;;;;;;5064404;28;20015;-74
2022/05/22 08:38:26;;;;;;;;;;;33.70;68.50;;;;;;5062882;28;19924;-74
2022/05/22 08:41:08;;;;;;;;;;;34.20;67.60;;;;;;5064697;28;19931;-75
2022/05/22 08:43:38;;;;;;;;;;;34.40;65.70;;;;;;5059218;28;20013;-73
2022/05/22 08:46:07;;;;;;;;;;;33.40;63.70;;;;;;5062687;28;19924;-75
2022/05/22 08:48:35;;;;;;;;;;;33.00;65.80;;;;;;5064853;28;19924;-73
2022/05/22 08:51:02;;;;;;;;;;;32.90;66.10;;;;;;5065158;28;19927;-72
2022/05/22 08:53:32;;;;;;;;;;;32.30;65.80;;;;;;5045772;28;19931;-72
2022/05/22 08:58:59;;;;;;;;;;;32.00;68.00;;;;;;5049007;28;19927;-73
2022/05/22 09:01:43;;;;;;;;;;;31.90;67.20;;;;;;5062904;28;20015;-73
2022/05/22 09:04:13;;;;;;;;;;;30.30;67.20;;;;;;5039836;28;20047;-73
2022/05/22 09:06:43;;;;;;;;;;;30.30;68.70;;;;;;5064232;28;20403;-73
2022/05/22 09:09:10;;;;;;;;;;;30.60;70.50;;;;;;5062666;28;19977;-73
2022/05/22 09:11:45;;;;;;;;;;;31.20;69.70;;;;;;5064294;28;20015;-73
2022/05/22 09:14:16;;;;;;;;;;;32.30;71.30;;;;;;5057428;28;20031;-73
2022/05/22 09:16:44;;;;;;;;;;;31.40;69.40;;;;;;5063268;28;19924;-74
2022/05/22 09:19:12;;;;;;;;;;;31.20;69.10;;;;;;5048816;28;19994;-73
2022/05/22 09:21:43;;;;;;;;;;;31.30;69.60;;;;;;5067486;28;20412;-74
2022/05/22 09:24:14;;;;;;;;;;;31.10;68.40;;;;;;5065478;28;20008;-73
2022/05/22 09:26:44;;;;;;;;;;;31.10;68.30;;;;;;5065070;28;19955;-73
2022/05/22 09:29:16;;;;;;;;;;;31.20;69.70;;;;;;5067627;28;20018;-73
2022/05/22 09:31:47;;;;;;;;;;;31.10;68.60;;;;;;5062116;28;20690;-74
2022/05/22 09:34:19;;;;;;;;;;;30.70;66.90;;;;;;5065108;28;19931;-73
2022/05/22 09:36:54;;;;;;;;;;;30.50;68.60;;;;;;5063605;28;19925;-73
2022/05/22 09:39:28;;;;;;;;;;;30.30;68.80;;;;;;5067009;28;19974;-73
2022/05/22 09:42:01;;;;;;;;;;;30.60;70.40;;;;;;5063102;28;19951;-71
2022/05/22 09:44:41;;;;;;;;;;;30.90;69.50;;;;;;5060127;28;19932;-73
2022/05/22 09:47:18;;;;;;;;;;;30.80;69.20;;;;;;5069218;28;20339;-72
2022/05/22 09:49:51;;;;;;;;;;;30.50;68.60;;;;;;5068469;28;19925;-72
2022/05/22 09:52:20;;;;;;;;;;;29.90;68.60;;;;;;5060659;28;19974;-72
2022/05/22 09:55:00;;;;;;;;;;;29.20;68.40;;;;;;5065779;28;19920;-72
2022/05/22 09:57:35;;;;;;;;;;;29.00;69.40;;;;;;5067841;28;19935;-71
2022/05/22 10:00:09;;;;;;;;;;;28.70;69.20;;;;;;5064283;28;19921;-71
2022/05/22 10:02:59;;;;;;;;;;;27.60;69.30;;;;;;5071895;28;20413;-73
2022/05/22 10:05:37;;;;;;;;;;;26.60;70.10;;;;;;5044591;28;20372;-74
2022/05/22 10:08:08;;;;;;;;;;;26.30;71.90;;;;;;5053182;28;19928;-74
2022/05/22 10:10:39;;;;;;;;;;;26.10;72.80;;;;;;5063368;28;19926;-73
2022/05/22 10:13:11;;;;;;;;;;;26.00;73.60;;;;;;5057175;28;19932;-74
2022/05/22 10:15:45;;;;;;;;;;;25.90;73.20;;;;;;5069542;28;19925;-74
2022/05/22 10:18:20;;;;;;;;;;;25.70;74.30;;;;;;5068268;28;19928;-73
2022/05/22 10:20:51;;;;;;;;;;;25.60;75.10;;;;;;5067900;28;19924;-74
2022/05/22 10:23:23;;;;;;;;;;;25.50;75.30;;;;;;5062443;28;20030;-73
2022/05/22 10:25:56;;;;;;;;;;;25.60;75.00;;;;;;5065557;28;19936;-72
2022/05/22 10:28:23;;;;;;;;;;;25.40;75.10;;;;;;5069650;28;19924;-73
2022/05/22 10:30:54;;;;;;;;;;;25.30;75.70;;;;;;5059442;28;19974;-74
2022/05/22 10:33:23;;;;;;;;;;;25.20;76.00;;;;;;5069224;28;19929;-72
2022/05/22 10:35:51;;;;;;;;;;;25.20;75.60;;;;;;5047186;28;20368;-72
2022/05/22 10:38:20;;;;;;;;;;;25.00;76.10;;;;;;5067497;28;19924;-72
2022/05/22 10:43:35;;;;;;;;;;;24.70;77.00;;;;;;5066216;28;20028;-72
2022/05/22 10:46:03;;;;;;;;;;;24.60;76.80;;;;;;5060543;28;20001;-73
2022/05/22 10:48:32;;;;;;;;;;;24.50;77.10;;;;;;5063164;28;20068;-73
2022/05/22 10:51:03;;;;;;;;;;;24.40;76.80;;;;;;5058620;28;19925;-71
2022/05/22 10:53:33;;;;;;;;;;;24.40;77.30;;;;;;5042190;28;20332;-71
2022/05/22 10:56:01;;;;;;;;;;;24.40;76.70;;;;;;5046635;28;19959;-71
2022/05/22 10:58:29;;;;;;;;;;;24.50;77.10;;;;;;5064014;28;20478;-72
2022/05/22 11:00:56;;;;;;;;;;;24.70;77.90;;;;;;5058951;28;19924;-72
2022/05/22 11:03:27;;;;;;;;;;;25.00;77.70;;;;;;5061014;28;19924;-73
2022/05/22 11:05:54;;;;;;;;;;;25.30;76.70;;;;;;5065589;28;19986;-72
2022/05/22 11:08:28;;;;;;;;;;;25.50;77.60;;;;;;5067923;28;19989;-71
2022/05/22 11:10:55;;;;;;;;;;;25.70;77.60;;;;;;5060887;28;20029;-73
2022/05/22 11:13:23;;;;;;;;;;;25.70;75.80;;;;;;5044500;28;19970;-73
2022/05/22 11:15:52;;;;;;;;;;;25.80;75.60;;;;;;5066645;28;19974;-73
2022/05/22 11:18:21;;;;;;;;;;;25.80;75.80;;;;;;5060045;28;20447;-73
2022/05/22 11:20:51;;;;;;;;;;;25.80;76.40;;;;;;5066482;28;20026;-74
2022/05/22 11:23:25;;;;;;;;;;;25.90;76.70;;;;;;5068724;28;19987;-74
2022/05/22 11:25:55;;;;;;;;;;;26.00;75.70;;;;;;5066045;28;19963;-73
2022/05/22 11:28:36;;;;;;;;;;;26.00;75.20;;;;;;5068135;28;19932;-74
2022/05/22 11:31:09;;;;;;;;;;;25.90;75.90;;;;;;5066616;28;20369;-74
2022/05/22 11:33:41;;;;;;;;;;;25.90;75.80;;;;;;5066769;28;19924;-74
2022/05/22 11:36:21;;;;;;;;;;;25.90;75.90;;;;;;5066743;28;20325;-73
2022/05/22 11:39:02;;;;;;;;;;;26.00;75.40;;;;;;5062186;28;19924;-72
2022/05/22 11:41:30;;;;;;;;;;;26.00;75.50;;;;;;5061024;28;20296;-73
2022/05/22 11:44:16;;;;;;;;;;;26.00;75.80;;;;;;5059885;28;19989;-72
2022/05/22 11:46:50;;;;;;;;;;;26.00;76.00;;;;;;5064386;28;20035;-73
2022/05/22 11:49:23;;;;;;;;;;;26.30;75.50;;;;;;5049361;28;20022;-72
2022/05/22 11:52:09;;;;;;;;;;;26.40;75.10;;;;;;5074583;28;19928;-72
2022/05/22 11:54:43;;;;;;;;;;;26.70;74.40;;;;;;5065583;28;20372;-73
2022/05/22 11:57:22;;;;;;;;;;;26.70;74.60;;;;;;5061210;28;19924;-73
2022/05/22 11:59:53;;;;;;;;;;;26.70;74.90;;;;;;5065419;28;19966;-72
2022/05/22 12:02:25;;;;;;;;;;;26.80;74.80;;;;;;5062296;28;19925;-74
2022/05/22 12:05:05;;;;;;;;;;;27.00;73.90;;;;;;5055612;28;19962;-74
2022/05/22 12:07:54;;;;;;;;;;;27.00;73.60;;;;;;5055230;28;19932;-74
2022/05/22 12:10:22;;;;;;;;;;;27.10;74.20;;;;;;5056510;28;20034;-74
2022/05/22 12:12:53;;;;;;;;;;;27.40;73.00;;;;;;5039245;23;20662;-78
2022/05/22 12:15:25;;;;;;;;;;;27.60;73.50;;;;;;5048317;28;19928;-78
2022/05/22 12:17:55;;;;;;;;;;;27.60;71.90;;;;;;5048617;28;19995;-78
2022/05/22 12:20:23;;;;;;;;;;;27.50;72.20;;;;;;5027864;28;19925;-77
2022/05/22 12:23:10;;;;;;;;;;;27.20;72.10;;;;;;5560369;22;19990;-77
2022/05/22 12:25:41;;;;;;;;;;;27.10;72.60;;;;;;5050489;28;19936;-77
2022/05/22 12:28:18;;;;;;;;;;;27.00;72.70;;;;;;5054526;28;19939;-79
2022/05/22 12:30:45;;;;;;;;;;;26.80;72.90;;;;;;5055783;28;19928;-79
2022/05/22 12:33:12;;;;;;;;;;;26.70;72.80;;;;;;5055987;28;19929;-78
2022/05/22 12:35:43;;;;;;;;;;;26.80;73.50;;;;;;5057625;28;19933;-78
2022/05/22 12:38:12;;;;;;;;;;;26.90;73.40;;;;;;5055990;28;19935;-78
2022/05/22 12:40:43;;;;;;;;;;;26.80;73.80;;;;;;5056797;28;20420;-79
2022/05/22 12:43:14;;;;;;;;;;;26.60;72.80;;;;;;5053174;28;19946;-78
2022/05/22 12:45:42;;;;;;;;;;;26.60;73.40;;;;;;5055262;28;19973;-79
2022/05/22 12:48:10;;;;;;;;;;;26.40;74.00;;;;;;5059082;28;20007;-77
2022/05/22 12:50:44;;;;;;;;;;;26.40;74.60;;;;;;5054333;28;20304;-77
2022/05/22 12:53:18;;;;;;;;;;;26.20;73.40;;;;;;5038488;28;20073;-77
2022/05/22 12:55:45;;;;;;;;;;;25.90;73.60;;;;;;5066968;28;20265;-77
2022/05/22 12:58:31;;;;;;;;;;;25.90;74.50;;;;;;5065433;28;19928;-78
2022/05/22 13:00:58;;;;;;;;;;;26.60;75.10;;;;;;5045801;28;19928;-78
2022/05/22 13:03:27;;;;;;;;;;;26.60;75.50;;;;;;5064796;28;19986;-78
2022/05/22 13:05:58;;;;;;;;;;;26.90;74.50;;;;;;5042070;28;20377;-79
2022/05/22 13:08:30;;;;;;;;;;;27.20;74.60;;;;;;5059853;28;19928;-79
2022/05/22 13:10:58;;;;;;;;;;;28.00;73.50;;;;;;5061593;28;19950;-79
2022/05/22 13:13:27;;;;;;;;;;;28.00;73.50;;;;;;5059154;28;19924;-78
2022/05/22 13:15:56;;;;;;;;;;;28.20;72.60;;;;;;5063062;28;19924;-78
2022/05/22 13:18:23;;;;;;;;;;;28.00;71.50;;;;;;5069679;28;19931;-78
2022/05/22 13:20:52;;;;;;;;;;;27.70;70.50;;;;;;5068180;28;19928;-78
2022/05/22 13:23:28;;;;;;;;;;;27.70;71.10;;;;;;5043339;28;19925;-78
2022/05/22 13:25:57;;;;;;;;;;;27.40;71.90;;;;;;5063907;28;19921;-78
2022/05/22 13:28:26;;;;;;;;;;;27.10;72.80;;;;;;5051584;28;19936;-79
2022/05/22 13:30:55;;;;;;;;;;;26.60;72.90;;;;;;5065622;28;19921;-79
2022/05/22 13:33:24;;;;;;;;;;;26.60;73.60;;;;;;5068802;28;19929;-79
2022/05/22 13:35:54;;;;;;;;;;;26.70;74.30;;;;;;5065654;28;19937;-79
2022/05/22 13:38:22;;;;;;;;;;;26.70;74.40;;;;;;5066234;28;19936;-80
2022/05/22 13:40:52;;;;;;;;;;;26.80;73.30;;;;;;5063432;28;19996;-77
2022/05/22 13:43:37;;;;;;;;;;;26.50;72.10;;;;;;5046183;28;19931;-78
2022/05/22 13:46:27;;;;;;;;;;;26.40;73.30;;;;;;5063374;28;19936;-78
2022/05/22 13:49:12;;;;;;;;;;;26.30;73.60;;;;;;5057977;28;20038;-78
2022/05/22 13:54:36;;;;;;;;;;;26.20;74.40;;;;;;5057770;28;20408;-77
2022/05/22 13:57:06;;;;;;;;;;;26.30;73.60;;;;;;5055734;28;20405;-78
2022/05/22 13:59:35;;;;;;;;;;;26.30;73.60;;;;;;5058005;28;20474;-78
2022/05/22 14:02:05;;;;;;;;;;;26.40;73.60;;;;;;5055395;28;19929;-78
2022/05/22 14:04:33;;;;;;;;;;;26.40;74.10;;;;;;5061639;28;19936;-78
2022/05/22 14:07:05;;;;;;;;;;;26.50;73.90;;;;;;5049725;28;19924;-77
2022/05/22 14:09:34;;;;;;;;;;;26.60;74.60;;;;;;5068868;28;19928;-78
2022/05/22 14:12:01;;;;;;;;;;;26.70;74.40;;;;;;5063943;28;19921;-78
2022/05/22 14:14:29;;;;;;;;;;;26.60;74.10;;;;;;5070541;28;19931;-77
2022/05/22 14:16:57;;;;;;;;;;;26.30;75.00;;;;;;5069193;28;19921;-78
2022/05/22 14:19:29;;;;;;;;;;;26.20;75.50;;;;;;5068616;28;19924;-78
2022/05/22 14:22:03;;;;;;;;;;;26.10;75.00;;;;;;5072220;28;19920;-78
2022/05/22 14:27:17;;;;;;;;;;;26.00;75.00;;;;;;5049658;28;19938;-78
2022/05/22 14:29:45;;;;;;;;;;;26.00;75.30;;;;;;5061495;28;19925;-78
2022/05/22 14:32:14;;;;;;;;;;;26.00;75.40;;;;;;5068687;28;19924;-78
2022/05/22 14:34:45;;;;;;;;;;;26.10;75.30;;;;;;5070387;28;19932;-78
2022/05/22 14:37:12;;;;;;;;;;;26.20;74.60;;;;;;5070226;28;20290;-78
2022/05/22 14:39:46;;;;;;;;;;;26.00;74.80;;;;;;5051881;28;19935;-78
2022/05/22 14:42:16;;;;;;;;;;;25.90;74.80;;;;;;5064460;28;19928;-78
2022/05/22 14:44:43;;;;;;;;;;;26.00;75.20;;;;;;5068936;28;19925;-78
2022/05/22 14:47:11;;;;;;;;;;;26.00;75.00;;;;;;5050473;28;20253;-78
2022/05/22 14:49:42;;;;;;;;;;;26.00;74.80;;;;;;5069933;28;19930;-77
2022/05/22 14:52:16;;;;;;;;;;;26.00;75.50;;;;;;5053120;28;19928;-78
2022/05/22 14:54:47;;;;;;;;;;;26.10;75.90;;;;;;5071578;28;19928;-78
2022/05/22 14:57:16;;;;;;;;;;;26.30;75.00;;;;;;5053347;28;19927;-78
2022/05/22 14:59:48;;;;;;;;;;;26.20;74.30;;;;;;5054328;28;20059;-78
2022/05/22 15:02:17;;;;;;;;;;;26.20;74.50;;;;;;5071200;28;19966;-78
2022/05/22 15:04:44;;;;;;;;;;;26.20;74.70;;;;;;5070290;28;20285;-78